createdAt,value
2019-04-30T00:01:36.163Z,9.80
2019-04-30T00:04:09.434Z,10.40
2019-04-30T00:06:39.675Z,9.90
2019-04-30T00:09:15.144Z,9.60
2019-04-30T00:11:46.088Z,9.67
2019-04-30T00:14:18.145Z,8.77
2019-04-30T00:16:48.279Z,8.70
2019-04-30T00:19:19.813Z,9.27
2019-04-30T00:21:56.876Z,9.40
2019-04-30T00:24:22.859Z,9.40
2019-04-30T00:26:55.028Z,9.20
2019-04-30T00:29:30.177Z,9.87
2019-04-30T00:31:57.762Z,9.77
2019-04-30T00:34:30.873Z,10.97
2019-04-30T00:37:00.347Z,10.13
2019-04-30T00:39:30.467Z,9.73
2019-04-30T00:42:18.636Z,10.03
2019-04-30T00:44:46.545Z,10.37
2019-04-30T00:47:16.551Z,9.17
2019-04-30T00:49:47.220Z,8.60
2019-04-30T00:52:17.381Z,9.47
2019-04-30T00:54:47.401Z,8.50
2019-04-30T00:57:17.966Z,7.97
2019-04-30T00:59:48.152Z,8.43
2019-04-30T01:02:27.633Z,8.63
2019-04-30T01:05:00.167Z,8.60
2019-04-30T01:07:28.020Z,8.13
2019-04-30T01:09:58.008Z,8.37
2019-04-30T01:12:31.701Z,8.17
2019-04-30T01:15:01.664Z,8.30
2019-04-30T01:17:31.547Z,8.40
2019-04-30T01:20:01.700Z,8.50
2019-04-30T01:22:33.078Z,8.00
2019-04-30T01:25:08.988Z,8.20
2019-04-30T01:27:39.458Z,8.43
2019-04-30T01:30:13.444Z,7.83
2019-04-30T01:32:41.249Z,8.20
2019-04-30T01:35:11.487Z,8.50
2019-04-30T01:37:41.491Z,8.20
2019-04-30T01:40:13.870Z,8.47
2019-04-30T01:42:48.668Z,8.37
2019-04-30T01:45:16.182Z,8.77
2019-04-30T01:47:46.308Z,7.83
2019-04-30T01:50:16.735Z,8.27
2019-04-30T01:52:52.670Z,7.97
2019-04-30T01:55:42.341Z,8.03
2019-04-30T01:58:14.045Z,7.90
2019-04-30T02:00:49.342Z,7.97
2019-04-30T02:03:19.547Z,8.20
2019-04-30T02:05:49.935Z,8.33
2019-04-30T02:08:20.211Z,8.30
2019-04-30T02:10:51.345Z,8.20
2019-04-30T02:13:21.597Z,8.10
2019-04-30T02:15:51.631Z,7.93
2019-04-30T02:18:21.685Z,8.57
2019-04-30T02:20:51.825Z,8.33
2019-04-30T02:23:21.817Z,8.33
2019-04-30T02:25:51.896Z,8.20
2019-04-30T02:28:21.893Z,8.30
2019-04-30T02:30:51.925Z,8.00
2019-04-30T02:33:21.941Z,8.17
2019-04-30T02:36:10.309Z,8.37
2019-04-30T02:38:42.128Z,8.20
2019-04-30T02:41:12.668Z,8.20
2019-04-30T02:43:43.622Z,8.33
2019-04-30T02:46:16.034Z,8.23
2019-04-30T02:48:47.360Z,8.17
2019-04-30T02:51:22.674Z,8.60
2019-04-30T02:54:03.537Z,8.07
2019-04-30T02:56:33.610Z,8.37
2019-04-30T02:59:04.106Z,8.63
2019-04-30T03:01:34.162Z,8.23
2019-04-30T03:04:04.154Z,8.63
2019-04-30T03:06:34.216Z,8.17
2019-04-30T03:09:06.071Z,8.33
2019-04-30T03:11:36.392Z,8.47
2019-04-30T03:14:06.409Z,8.47
2019-04-30T03:16:52.709Z,8.37
2019-04-30T03:19:23.430Z,8.33
2019-04-30T03:22:00.119Z,8.47
2019-04-30T03:24:29.697Z,8.10
2019-04-30T03:26:59.667Z,8.17
2019-04-30T03:29:30.234Z,8.80
2019-04-30T03:32:02.551Z,8.47
2019-04-30T03:34:33.290Z,8.83
2019-04-30T03:37:03.512Z,8.37
2019-04-30T03:39:34.088Z,8.43
2019-04-30T03:42:04.456Z,8.57
2019-04-30T03:44:34.464Z,8.47
2019-04-30T03:47:04.597Z,8.83
2019-04-30T03:49:34.591Z,8.83
2019-04-30T03:52:05.756Z,8.43
2019-04-30T03:54:35.737Z,8.20
2019-04-30T03:57:05.763Z,8.27
2019-04-30T03:59:35.819Z,8.20
2019-04-30T04:02:13.469Z,8.10
2019-04-30T04:04:52.165Z,8.17
2019-04-30T04:07:21.591Z,8.17
2019-04-30T04:09:56.382Z,8.30
2019-04-30T04:12:29.989Z,7.90
2019-04-30T04:15:00.737Z,8.00
2019-04-30T04:17:31.617Z,7.80
2019-04-30T04:20:01.925Z,7.87
2019-04-30T04:22:31.915Z,8.03
2019-04-30T04:25:01.937Z,7.77
2019-04-30T04:27:33.165Z,7.67
2019-04-30T04:30:04.148Z,8.13
2019-04-30T04:32:34.473Z,7.90
2019-04-30T04:35:12.204Z,8.10
2019-04-30T04:37:39.436Z,7.77
2019-04-30T04:40:10.561Z,7.53
2019-04-30T04:42:40.582Z,7.77
2019-04-30T04:45:10.732Z,7.77
2019-04-30T04:47:40.754Z,7.77
2019-04-30T04:50:12.524Z,7.50
2019-04-30T04:52:42.528Z,7.23
2019-04-30T04:55:13.108Z,7.97
2019-04-30T04:57:43.166Z,7.60
2019-04-30T05:00:13.978Z,7.67
2019-04-30T05:02:54.153Z,8.00
2019-04-30T05:05:24.169Z,8.53
2019-04-30T05:07:54.184Z,8.67
2019-04-30T05:10:24.240Z,8.30
2019-04-30T05:12:54.227Z,7.90
2019-04-30T05:15:24.254Z,7.73
2019-04-30T05:17:54.273Z,7.23
2019-04-30T05:20:24.285Z,7.47
2019-04-30T05:22:54.303Z,8.20
2019-04-30T05:25:24.374Z,7.90
2019-04-30T05:27:54.378Z,7.90
2019-04-30T05:30:24.569Z,8.00
2019-04-30T05:32:54.557Z,7.90
2019-04-30T05:35:24.564Z,7.43
2019-04-30T05:37:54.627Z,7.90
2019-04-30T05:40:24.644Z,7.50
2019-04-30T05:42:54.706Z,7.87
2019-04-30T05:45:24.710Z,7.80
2019-04-30T05:47:54.841Z,7.50
2019-04-30T05:50:24.911Z,8.03
2019-04-30T05:52:54.955Z,7.33
2019-04-30T05:55:24.941Z,7.47
2019-04-30T05:57:56.510Z,7.53
2019-04-30T06:00:30.306Z,7.70
2019-04-30T06:02:59.460Z,7.57
2019-04-30T06:05:29.729Z,7.90
2019-04-30T06:07:59.730Z,7.40
2019-04-30T06:10:34.151Z,7.30
2019-04-30T06:13:09.472Z,7.27
2019-04-30T06:15:53.678Z,7.37
2019-04-30T06:18:23.783Z,7.33
2019-04-30T06:20:53.858Z,7.40
2019-04-30T06:23:24.064Z,7.10
2019-04-30T06:25:59.592Z,7.30
2019-04-30T06:28:26.499Z,7.50
2019-04-30T06:30:56.781Z,7.60
2019-04-30T06:33:28.989Z,7.67
2019-04-30T06:36:00.205Z,8.03
2019-04-30T06:38:30.346Z,7.57
2019-04-30T06:41:00.423Z,7.40
2019-04-30T06:43:30.666Z,7.33
2019-04-30T06:46:00.867Z,7.37
2019-04-30T06:48:31.797Z,7.50
2019-04-30T06:51:01.978Z,7.40
2019-04-30T06:53:31.962Z,7.57
2019-04-30T06:56:02.027Z,7.20
2019-04-30T06:58:32.030Z,7.30
2019-04-30T07:01:02.064Z,7.20
2019-04-30T07:03:32.067Z,6.80
2019-04-30T07:06:02.064Z,7.50
2019-04-30T07:08:39.522Z,6.90
2019-04-30T07:11:23.055Z,7.27
2019-04-30T07:13:53.250Z,7.40
2019-04-30T07:16:23.325Z,7.50
2019-04-30T07:18:53.357Z,7.60
2019-04-30T07:21:23.406Z,7.23
2019-04-30T07:23:53.419Z,7.57
2019-04-30T07:26:24.754Z,7.17
2019-04-30T07:28:55.512Z,6.87
2019-04-30T07:31:26.704Z,6.67
2019-04-30T07:33:56.753Z,7.37
2019-04-30T07:36:43.459Z,6.63
2019-04-30T07:38:59.866Z,6.73
2019-04-30T07:41:31.293Z,6.17
2019-04-30T07:44:01.517Z,6.70
2019-04-30T07:46:35.193Z,6.50
2019-04-30T07:49:03.286Z,6.50
2019-04-30T07:51:37.610Z,6.07
2019-04-30T07:54:05.091Z,6.10
2019-04-30T07:56:40.881Z,5.87
2019-04-30T07:59:06.851Z,5.90
2019-04-30T08:01:36.931Z,5.73
2019-04-30T08:04:08.913Z,6.10
2019-04-30T08:06:39.930Z,5.73
2019-04-30T08:09:10.936Z,5.47
2019-04-30T08:11:43.428Z,5.47
2019-04-30T08:14:12.813Z,5.50
2019-04-30T08:16:42.884Z,5.53
2019-04-30T08:19:12.956Z,5.63
2019-04-30T08:21:42.956Z,6.00
2019-04-30T08:24:12.941Z,5.50
2019-04-30T08:26:43.087Z,5.10
2019-04-30T08:29:13.096Z,5.17
2019-04-30T08:31:43.155Z,5.33
2019-04-30T08:34:13.164Z,5.13
2019-04-30T08:36:43.220Z,5.00
2019-04-30T08:39:13.201Z,5.23
2019-04-30T08:41:43.274Z,5.63
2019-04-30T08:44:13.309Z,5.10
2019-04-30T08:46:43.487Z,5.07
2019-04-30T08:49:13.735Z,5.00
2019-04-30T08:51:44.073Z,5.60
2019-04-30T08:54:14.221Z,5.40
2019-04-30T08:56:44.246Z,5.50
2019-04-30T08:59:14.278Z,5.40
2019-04-30T09:01:44.338Z,5.27
2019-04-30T09:04:14.409Z,4.97
2019-04-30T09:06:44.400Z,5.57
2019-04-30T09:09:16.050Z,5.57
2019-04-30T09:11:53.116Z,5.00
2019-04-30T09:14:18.677Z,4.97
2019-04-30T09:16:49.528Z,4.80
2019-04-30T09:19:21.295Z,5.73
2019-04-30T09:21:51.427Z,5.27
2019-04-30T09:24:21.447Z,5.93
2019-04-30T09:26:51.441Z,5.40
2019-04-30T09:29:21.500Z,5.30
2019-04-30T09:31:51.570Z,5.50
2019-04-30T09:34:21.592Z,5.10
2019-04-30T09:36:51.601Z,5.70
2019-04-30T09:39:23.118Z,5.53
2019-04-30T09:41:53.300Z,5.17
2019-04-30T09:44:23.297Z,6.43
2019-04-30T09:46:53.427Z,5.47
2019-04-30T09:49:23.426Z,5.57
2019-04-30T09:51:53.629Z,5.93
2019-04-30T09:54:24.473Z,5.50
2019-04-30T09:56:54.785Z,6.07
2019-04-30T09:59:24.784Z,5.77
2019-04-30T10:01:54.837Z,6.10
2019-04-30T10:04:26.408Z,5.33
2019-04-30T10:06:56.971Z,6.13
2019-04-30T10:09:27.046Z,5.73
2019-04-30T10:11:59.554Z,5.87
2019-04-30T10:14:29.716Z,5.47
2019-04-30T10:17:01.403Z,5.53
2019-04-30T10:19:31.426Z,6.07
2019-04-30T10:22:01.541Z,5.30
2019-04-30T10:24:31.541Z,5.67
2019-04-30T10:27:02.313Z,5.37
2019-04-30T10:29:32.369Z,5.07
2019-04-30T10:32:03.514Z,5.03
2019-04-30T10:34:33.505Z,5.37
2019-04-30T10:37:03.609Z,5.23
2019-04-30T10:39:33.758Z,5.30
2019-04-30T10:42:04.330Z,5.60
2019-04-30T10:44:34.338Z,5.67
2019-04-30T10:47:04.523Z,5.10
2019-04-30T10:49:35.681Z,5.50
2019-04-30T10:52:06.092Z,5.10
2019-04-30T10:54:36.121Z,5.33
2019-04-30T10:57:06.267Z,5.70
2019-04-30T10:59:36.277Z,5.03
2019-04-30T11:02:08.940Z,4.97
2019-04-30T11:04:38.599Z,4.90
2019-04-30T11:07:08.871Z,5.27
2019-04-30T11:09:39.324Z,4.90
2019-04-30T11:12:09.711Z,5.10
2019-04-30T11:14:39.852Z,5.10
2019-04-30T11:17:10.136Z,4.97
2019-04-30T11:19:41.706Z,5.00
2019-04-30T11:22:12.034Z,5.00
2019-04-30T11:24:56.614Z,4.90
2019-04-30T11:27:14.467Z,4.77
2019-04-30T11:29:45.354Z,4.77
2019-04-30T11:32:17.421Z,4.87
2019-04-30T11:34:47.741Z,4.57
2019-04-30T11:37:18.772Z,4.43
2019-04-30T11:39:49.004Z,4.57
2019-04-30T11:42:19.165Z,4.50
2019-04-30T11:44:49.232Z,4.60
2019-04-30T11:47:24.774Z,4.70
2019-04-30T11:49:56.422Z,4.60
2019-04-30T11:52:26.416Z,4.40
2019-04-30T11:54:56.451Z,4.50
2019-04-30T11:57:26.520Z,4.23
2019-04-30T11:59:56.564Z,4.83
2019-04-30T12:02:29.344Z,4.70
2019-04-30T12:05:00.761Z,4.83
2019-04-30T12:07:35.454Z,4.33
2019-04-30T12:10:09.468Z,4.20
2019-04-30T12:12:39.536Z,4.80
2019-04-30T12:15:09.882Z,4.90
2019-04-30T12:17:40.999Z,4.60
2019-04-30T12:20:11.932Z,4.50
2019-04-30T12:22:41.947Z,4.33
2019-04-30T12:25:12.181Z,4.20
2019-04-30T12:27:42.454Z,4.40
2019-04-30T12:30:14.284Z,3.90
2019-04-30T12:32:44.299Z,4.20
2019-04-30T12:35:14.743Z,4.30
2019-04-30T12:37:44.734Z,4.33
2019-04-30T12:40:28.579Z,4.40
2019-04-30T12:42:48.211Z,4.30
2019-04-30T12:45:19.462Z,3.80
2019-04-30T12:47:52.343Z,4.60
2019-04-30T12:50:36.381Z,4.20
2019-04-30T12:53:26.294Z,4.10
2019-04-30T12:56:01.541Z,4.60
2019-04-30T12:58:31.740Z,4.90
2019-04-30T13:01:01.789Z,4.80
2019-04-30T13:03:31.803Z,4.30
2019-04-30T13:06:02.748Z,4.80
2019-04-30T13:08:33.820Z,4.83
2019-04-30T13:11:05.073Z,4.43
2019-04-30T13:13:36.423Z,4.70
2019-04-30T13:16:08.551Z,4.40
2019-04-30T13:18:39.368Z,4.67
2019-04-30T13:21:09.529Z,4.93
2019-04-30T13:23:39.539Z,5.10
2019-04-30T13:26:09.580Z,4.73
2019-04-30T13:28:44.176Z,4.77
2019-04-30T13:31:14.315Z,4.67
2019-04-30T13:33:46.462Z,4.93
2019-04-30T13:36:17.080Z,5.17
2019-04-30T13:38:51.760Z,4.50
2019-04-30T13:41:31.363Z,4.40
2019-04-30T13:44:02.530Z,4.20
2019-04-30T13:46:32.685Z,4.27
2019-04-30T13:49:02.761Z,4.20
2019-04-30T13:51:32.849Z,3.67
2019-04-30T13:54:02.990Z,3.57
2019-04-30T13:56:33.035Z,3.70
2019-04-30T13:59:04.344Z,3.30
2019-04-30T14:01:34.363Z,3.33
2019-04-30T14:04:15.310Z,3.50
2019-04-30T14:06:55.754Z,4.07
2019-04-30T14:09:27.393Z,3.93
2019-04-30T14:11:58.660Z,3.93
2019-04-30T14:14:29.648Z,3.80
2019-04-30T14:17:01.240Z,4.27
2019-04-30T14:19:31.438Z,4.10
2019-04-30T14:22:01.596Z,4.40
2019-04-30T14:24:31.593Z,4.20
2019-04-30T14:27:01.657Z,4.27
2019-04-30T14:29:31.644Z,4.30
2019-04-30T14:32:01.635Z,4.17
2019-04-30T14:34:32.773Z,4.60
2019-04-30T14:37:02.826Z,4.20
2019-04-30T14:39:33.144Z,4.80
2019-04-30T14:42:04.112Z,4.17
2019-04-30T14:44:36.856Z,4.77
2019-04-30T14:47:15.071Z,4.37
2019-04-30T14:49:59.160Z,4.93
2019-04-30T14:52:19.326Z,4.80
2019-04-30T14:55:06.072Z,4.27
2019-04-30T14:57:53.674Z,4.40
2019-04-30T15:00:34.591Z,4.67
2019-04-30T15:03:15.925Z,4.67
2019-04-30T15:05:50.907Z,4.80
2019-04-30T15:08:19.399Z,4.70
2019-04-30T15:10:49.639Z,4.30
2019-04-30T15:13:19.890Z,4.40
2019-04-30T15:15:50.620Z,4.50
2019-04-30T15:18:20.599Z,4.50
2019-04-30T15:20:50.680Z,4.80
2019-04-30T15:23:28.453Z,4.60
2019-04-30T15:25:58.708Z,4.30
2019-04-30T15:28:32.444Z,4.30
2019-04-30T15:31:00.671Z,4.27
2019-04-30T15:33:35.060Z,4.27
2019-04-30T15:36:05.965Z,4.70
2019-04-30T15:38:55.465Z,4.80
2019-04-30T15:41:25.456Z,4.40
2019-04-30T15:43:55.594Z,4.70
2019-04-30T15:46:26.801Z,4.70
2019-04-30T15:48:56.789Z,4.60
2019-04-30T15:51:26.860Z,5.00
2019-04-30T15:53:56.846Z,4.73
2019-04-30T15:56:35.179Z,4.70
2019-04-30T15:59:16.756Z,4.70
2019-04-30T16:01:51.360Z,5.00
2019-04-30T16:04:38.547Z,4.40
2019-04-30T16:07:08.588Z,4.50
2019-04-30T16:09:58.469Z,4.23
2019-04-30T16:12:30.352Z,3.97
2019-04-30T16:15:00.381Z,3.97
2019-04-30T16:17:30.500Z,4.37
2019-04-30T16:20:00.520Z,3.60
2019-04-30T16:22:30.584Z,3.70
2019-04-30T16:25:00.785Z,3.60
2019-04-30T16:27:30.796Z,3.30
2019-04-30T16:30:00.811Z,3.40
2019-04-30T16:32:32.469Z,3.40
2019-04-30T16:35:02.532Z,2.97
2019-04-30T16:37:32.524Z,3.33
2019-04-30T16:40:02.582Z,3.27
2019-04-30T16:42:32.717Z,3.50
2019-04-30T16:45:02.868Z,3.70
2019-04-30T16:47:34.104Z,3.33
2019-04-30T16:50:09.010Z,3.50
2019-04-30T16:52:39.503Z,3.20
2019-04-30T16:55:09.815Z,3.27
2019-04-30T16:57:41.269Z,3.27
2019-04-30T17:00:13.697Z,3.60
2019-04-30T17:02:45.347Z,3.43
2019-04-30T17:05:19.834Z,3.60
2019-04-30T17:07:51.307Z,3.80
2019-04-30T17:10:23.011Z,3.57
2019-04-30T17:12:59.167Z,3.63
2019-04-30T17:15:36.240Z,3.40
2019-04-30T17:18:09.835Z,3.57
2019-04-30T17:20:38.682Z,3.70
2019-04-30T17:23:09.449Z,3.80
2019-04-30T17:25:39.697Z,3.90
2019-04-30T17:28:09.685Z,3.70
2019-04-30T17:30:39.745Z,3.73
2019-04-30T17:33:09.841Z,3.57
2019-04-30T17:35:39.849Z,3.60
2019-04-30T17:38:09.898Z,4.13
2019-04-30T17:40:41.428Z,3.87
2019-04-30T17:43:11.435Z,4.20
2019-04-30T17:45:41.487Z,3.57
2019-04-30T17:48:11.470Z,3.63
2019-04-30T17:50:41.534Z,3.67
2019-04-30T17:53:11.520Z,3.67
2019-04-30T17:55:41.584Z,3.90
2019-04-30T17:58:11.642Z,4.00
2019-04-30T18:00:43.443Z,4.60
2019-04-30T18:03:13.595Z,3.83
2019-04-30T18:05:43.755Z,3.93
2019-04-30T18:08:13.731Z,4.30
2019-04-30T18:10:44.390Z,4.07
2019-04-30T18:13:14.459Z,4.07
2019-04-30T18:15:44.474Z,4.73
2019-04-30T18:18:16.171Z,4.30
2019-04-30T18:20:50.750Z,4.30
2019-04-30T18:23:39.242Z,4.30
2019-04-30T18:26:13.980Z,4.00
2019-04-30T18:28:44.114Z,4.27
2019-04-30T18:31:14.288Z,4.27
2019-04-30T18:33:44.467Z,4.37
2019-04-30T18:36:14.656Z,4.13
2019-04-30T18:38:44.657Z,4.27
2019-04-30T18:41:14.747Z,4.90
2019-04-30T18:43:44.739Z,4.30
2019-04-30T18:46:14.725Z,4.00
2019-04-30T18:48:44.783Z,4.20
2019-04-30T18:51:30.616Z,4.03
2019-04-30T18:53:47.121Z,4.50
2019-04-30T18:56:19.160Z,4.40
2019-04-30T18:58:49.374Z,4.13
2019-04-30T19:01:19.433Z,4.47
2019-04-30T19:03:49.432Z,4.63
2019-04-30T19:06:26.159Z,4.80
2019-04-30T19:09:01.216Z,4.70
2019-04-30T19:11:34.515Z,4.67
2019-04-30T19:14:06.287Z,4.60
2019-04-30T19:16:56.475Z,4.67
2019-04-30T19:19:34.780Z,4.60
2019-04-30T19:22:05.053Z,4.40
2019-04-30T19:24:35.157Z,4.50
2019-04-30T19:27:05.481Z,4.67
2019-04-30T19:29:35.636Z,4.23
2019-04-30T19:32:05.741Z,4.90
2019-04-30T19:34:35.749Z,4.60
2019-04-30T19:37:05.781Z,4.50
2019-04-30T19:39:35.791Z,4.70
2019-04-30T19:42:05.997Z,4.90
2019-04-30T19:44:36.381Z,4.53
2019-04-30T19:47:06.445Z,4.63
2019-04-30T19:49:36.462Z,4.87
2019-04-30T19:52:11.094Z,5.20
2019-04-30T19:54:40.218Z,5.00
2019-04-30T19:57:10.354Z,5.30
2019-04-30T19:59:40.385Z,4.97
2019-04-30T20:02:10.747Z,9.23
2019-04-30T20:04:42.357Z,6.33
2019-04-30T20:07:12.371Z,5.17
2019-04-30T20:09:43.173Z,6.53
2019-04-30T20:12:14.382Z,6.70
2019-04-30T20:14:44.476Z,7.47
2019-04-30T20:17:14.471Z,7.13
2019-04-30T20:19:44.561Z,6.27
2019-04-30T20:22:14.755Z,5.77
2019-04-30T20:24:45.028Z,5.40
2019-04-30T20:27:15.120Z,5.70
2019-04-30T20:29:45.263Z,5.97
2019-04-30T20:32:15.394Z,5.50
2019-04-30T20:34:45.416Z,5.80
2019-04-30T20:37:15.426Z,5.90
2019-04-30T20:39:49.279Z,6.20
2019-04-30T20:42:18.787Z,6.27
2019-04-30T20:44:49.053Z,8.20
2019-04-30T20:47:21.094Z,8.27
2019-04-30T20:49:50.852Z,7.93
2019-04-30T20:52:20.875Z,7.30
2019-04-30T20:54:50.993Z,7.77
2019-04-30T20:57:21.140Z,8.30
2019-04-30T20:59:51.310Z,7.50
2019-04-30T21:02:21.405Z,7.80
2019-04-30T21:04:52.474Z,7.80
2019-04-30T21:07:22.613Z,7.27
2019-04-30T21:09:54.215Z,7.87
2019-04-30T21:12:24.241Z,7.50
2019-04-30T21:14:54.317Z,7.80
2019-04-30T21:17:24.391Z,7.30
2019-04-30T21:19:54.481Z,7.90
2019-04-30T21:22:24.635Z,7.47
2019-04-30T21:24:54.746Z,7.73
2019-04-30T21:27:25.627Z,7.77
2019-04-30T21:29:55.639Z,7.53
2019-04-30T21:32:43.868Z,8.27
2019-04-30T21:35:24.703Z,7.97
2019-04-30T21:38:01.721Z,8.30
2019-04-30T21:40:30.963Z,7.90
2019-04-30T21:43:11.079Z,8.20
2019-04-30T21:45:41.396Z,8.33
2019-04-30T21:48:11.451Z,8.00
2019-04-30T21:50:41.561Z,8.53
2019-04-30T21:53:11.709Z,8.57
2019-04-30T21:55:41.816Z,8.07
2019-04-30T21:58:11.931Z,8.83
2019-04-30T22:00:43.643Z,8.77
2019-04-30T22:03:15.331Z,8.77
2019-04-30T22:05:45.570Z,8.50
2019-04-30T22:08:15.598Z,8.07
2019-04-30T22:10:45.663Z,8.13
2019-04-30T22:13:15.716Z,8.67
2019-04-30T22:15:45.728Z,9.00
2019-04-30T22:18:15.782Z,8.73
2019-04-30T22:20:45.863Z,9.20
2019-04-30T22:23:15.920Z,8.77
2019-04-30T22:25:46.019Z,8.50
2019-04-30T22:28:16.094Z,8.20
2019-04-30T22:30:46.265Z,7.93
2019-04-30T22:33:16.380Z,7.90
2019-04-30T22:35:54.112Z,8.20
2019-04-30T22:38:34.672Z,7.23
2019-04-30T22:41:04.976Z,8.10
2019-04-30T22:43:35.124Z,7.97
2019-04-30T22:46:06.942Z,8.10
2019-04-30T22:48:36.987Z,8.07
2019-04-30T22:51:07.104Z,8.90
2019-04-30T22:53:37.410Z,8.60
2019-04-30T22:56:07.507Z,8.57
2019-04-30T22:58:37.573Z,8.60
2019-04-30T23:01:13.060Z,8.07
2019-04-30T23:03:43.157Z,8.40
2019-04-30T23:06:13.408Z,8.57
2019-04-30T23:08:43.449Z,7.90
2019-04-30T23:11:13.699Z,8.30
2019-04-30T23:13:43.823Z,8.30
2019-04-30T23:16:14.177Z,8.30
2019-04-30T23:18:44.281Z,8.60
2019-04-30T23:21:14.323Z,8.93
2019-04-30T23:23:44.391Z,8.17
2019-04-30T23:26:14.402Z,8.57
2019-04-30T23:28:44.458Z,8.47
2019-04-30T23:31:14.450Z,9.07
2019-04-30T23:33:44.564Z,9.10
2019-04-30T23:36:14.665Z,8.60
2019-04-30T23:38:44.677Z,9.73
2019-04-30T23:41:14.692Z,8.70
2019-04-30T23:43:44.884Z,8.63
2019-04-30T23:46:14.947Z,8.33
2019-04-30T23:48:44.941Z,9.07
2019-04-30T23:51:14.971Z,9.00
2019-04-30T23:53:45.077Z,8.57
2019-04-30T23:56:15.073Z,9.00
2019-04-30T23:58:45.090Z,8.53
